createdAt,value
2018-04-20T00:00:17.252Z,25.37
2018-04-20T00:02:43.740Z,31.07
2018-04-20T00:05:10.201Z,22.73
2018-04-20T00:07:36.574Z,23.17
2018-04-20T00:10:03.023Z,25.67
2018-04-20T00:12:29.475Z,26.97
2018-04-20T00:14:56.423Z,24.53
2018-04-20T00:17:22.861Z,19.53
2018-04-20T00:19:49.427Z,25.73
2018-04-20T00:22:15.897Z,20.43
2018-04-20T00:24:42.331Z,18.10
2018-04-20T00:27:08.712Z,19.87
2018-04-20T00:29:35.135Z,18.37
2018-04-20T00:32:01.647Z,18.53
2018-04-20T00:34:28.063Z,24.50
2018-04-20T00:36:54.408Z,19.67
2018-04-20T00:39:20.792Z,21.50
2018-04-20T00:41:47.093Z,20.27
2018-04-20T00:44:13.429Z,23.50
2018-04-20T00:46:39.788Z,26.00
2018-04-20T00:49:06.164Z,21.53
2018-04-20T00:51:32.561Z,29.53
2018-04-20T00:54:17.314Z,31.93
2018-04-20T00:56:43.691Z,27.83
2018-04-20T00:59:10.037Z,27.83
2018-04-20T01:01:36.411Z,25.60
2018-04-20T01:04:02.742Z,29.90
2018-04-20T01:06:29.072Z,25.80
2018-04-20T01:08:55.368Z,26.97
2018-04-20T01:11:21.751Z,21.90
2018-04-20T01:13:48.060Z,22.03
2018-04-20T01:16:14.527Z,20.33
2018-04-20T01:18:40.845Z,18.87
2018-04-20T01:21:08.183Z,20.87
2018-04-20T01:23:34.470Z,19.07
2018-04-20T01:26:00.770Z,22.73
2018-04-20T01:28:27.091Z,16.80
2018-04-20T01:30:53.407Z,24.60
2018-04-20T01:33:19.699Z,21.67
2018-04-20T01:35:45.986Z,17.47
2018-04-20T01:38:12.302Z,18.47
2018-04-20T01:40:38.633Z,23.27
2018-04-20T01:43:05.817Z,18.83
2018-04-20T01:45:32.159Z,23.23
2018-04-20T01:47:59.352Z,19.00
2018-04-20T01:50:25.684Z,20.83
2018-04-20T01:52:51.993Z,21.03
2018-04-20T01:55:18.270Z,22.80
2018-04-20T01:57:44.621Z,17.03
2018-04-20T02:00:10.914Z,21.77
2018-04-20T02:02:37.240Z,22.47
2018-04-20T02:05:03.574Z,20.40
2018-04-20T02:07:29.903Z,21.83
2018-04-20T02:09:56.259Z,21.10
2018-04-20T02:12:22.606Z,17.67
2018-04-20T02:14:48.937Z,19.13
2018-04-20T02:17:15.338Z,16.07
2018-04-20T02:19:41.624Z,18.80
2018-04-20T02:22:07.902Z,19.40
2018-04-20T02:24:34.239Z,22.57
2018-04-20T02:27:00.540Z,21.30
2018-04-20T02:29:26.833Z,22.43
2018-04-20T02:31:53.932Z,18.97
2018-04-20T02:34:20.351Z,23.30
2018-04-20T02:36:46.617Z,20.47
2018-04-20T02:39:12.938Z,24.40
2018-04-20T02:41:39.335Z,21.70
2018-04-20T02:44:05.651Z,25.40
2018-04-20T02:46:31.913Z,25.13
2018-04-20T02:48:58.230Z,23.27
2018-04-20T02:51:24.600Z,25.53
2018-04-20T02:53:51.811Z,24.40
2018-04-20T02:56:18.092Z,26.23
2018-04-20T02:58:44.408Z,24.90
2018-04-20T03:01:10.706Z,24.80
2018-04-20T03:03:36.997Z,25.77
2018-04-20T03:06:03.292Z,27.43
2018-04-20T03:08:29.617Z,27.97
2018-04-20T03:10:55.971Z,25.70
2018-04-20T03:13:22.399Z,25.30
2018-04-20T03:15:48.819Z,27.90
2018-04-20T03:18:15.276Z,24.87
2018-04-20T03:20:42.245Z,25.20
2018-04-20T03:23:09.321Z,29.50
2018-04-20T03:25:35.663Z,26.20
2018-04-20T03:28:01.980Z,26.03
2018-04-20T03:30:29.068Z,31.50
2018-04-20T03:32:55.586Z,27.97
2018-04-20T03:35:21.965Z,24.80
2018-04-20T03:37:48.257Z,27.33
2018-04-20T03:40:14.564Z,30.23
2018-04-20T03:42:40.919Z,22.93
2018-04-20T03:45:07.179Z,22.70
2018-04-20T03:47:33.541Z,22.87
2018-04-20T03:50:00.628Z,26.13
2018-04-20T03:52:26.933Z,19.23
2018-04-20T03:54:53.276Z,23.20
2018-04-20T03:57:19.599Z,23.27
2018-04-20T03:59:45.892Z,24.73
2018-04-20T04:02:12.163Z,22.77
2018-04-20T04:04:38.485Z,32.23
2018-04-20T04:07:04.802Z,21.60
2018-04-20T04:09:32.362Z,25.10
2018-04-20T04:12:00.474Z,23.87
2018-04-20T04:14:26.816Z,26.47
2018-04-20T04:17:11.722Z,21.97
2018-04-20T04:23:08.955Z,21.20
2018-04-20T04:25:53.852Z,22.70
2018-04-20T04:28:27.074Z,24.00
2018-04-20T04:30:54.111Z,28.87
2018-04-20T04:33:20.372Z,19.57
2018-04-20T04:35:46.687Z,19.30
2018-04-20T04:38:13.003Z,23.57
2018-04-20T04:40:40.135Z,18.33
2018-04-20T04:43:06.421Z,19.90
2018-04-20T04:45:32.752Z,21.10
2018-04-20T04:47:59.030Z,20.67
2018-04-20T04:50:25.341Z,15.30
2018-04-20T04:52:51.679Z,17.63
2018-04-20T04:55:23.872Z,18.93
2018-04-20T04:57:50.175Z,15.20
2018-04-20T05:00:16.451Z,24.87
2018-04-20T05:02:43.499Z,15.90
2018-04-20T05:05:10.533Z,15.93
2018-04-20T05:07:36.778Z,16.20
2018-04-20T05:10:03.802Z,16.20
2018-04-20T05:12:31.405Z,17.70
2018-04-20T05:14:57.720Z,14.40
2018-04-20T05:17:24.038Z,22.43
2018-04-20T05:19:51.340Z,15.33
2018-04-20T05:22:17.636Z,17.63
2018-04-20T05:24:43.937Z,12.33
2018-04-20T05:27:10.242Z,16.33
2018-04-20T05:29:36.539Z,18.63
2018-04-20T05:32:02.832Z,12.90
2018-04-20T05:34:29.882Z,11.40
2018-04-20T05:36:56.195Z,13.43
2018-04-20T05:39:22.598Z,10.70
2018-04-20T05:41:48.924Z,13.20
2018-04-20T05:44:15.285Z,12.90
2018-04-20T05:46:41.630Z,12.67
2018-04-20T05:49:08.066Z,20.63
2018-04-20T05:51:34.530Z,12.70
2018-04-20T05:54:01.577Z,13.17
2018-04-20T05:56:27.949Z,14.57
2018-04-20T05:58:54.317Z,16.60
2018-04-20T06:01:24.665Z,13.50
2018-04-20T06:03:51.812Z,14.10
2018-04-20T06:06:18.853Z,14.77
2018-04-20T06:08:45.905Z,22.70
2018-04-20T06:11:12.968Z,16.97
2018-04-20T06:13:39.282Z,13.60
2018-04-20T06:16:06.372Z,19.90
2018-04-20T06:18:32.678Z,12.30
2018-04-20T06:20:58.985Z,16.37
2018-04-20T06:23:25.304Z,16.17
2018-04-20T06:25:51.591Z,14.33
2018-04-20T06:28:17.859Z,15.07
2018-04-20T06:30:44.209Z,14.53
2018-04-20T06:33:11.254Z,12.60
2018-04-20T06:35:37.526Z,14.47
2018-04-20T06:38:03.795Z,15.20
2018-04-20T06:40:30.084Z,14.33
2018-04-20T06:42:56.359Z,15.23
2018-04-20T06:45:22.680Z,13.37
2018-04-20T06:47:48.975Z,14.67
2018-04-20T06:50:15.265Z,12.43
2018-04-20T06:52:42.352Z,15.57
2018-04-20T06:55:08.679Z,14.43
2018-04-20T06:57:34.971Z,10.60
2018-04-20T07:00:01.284Z,15.80
2018-04-20T07:02:27.589Z,16.03
2018-04-20T07:04:53.918Z,12.70
2018-04-20T07:07:20.209Z,12.73
2018-04-20T07:09:47.251Z,8.37
2018-04-20T07:12:14.322Z,14.00
2018-04-20T07:14:40.618Z,17.77
2018-04-20T07:17:06.924Z,18.47
2018-04-20T07:19:33.190Z,12.03
2018-04-20T07:22:00.246Z,12.23
2018-04-20T07:24:27.295Z,12.40
2018-04-20T07:26:54.317Z,14.97
2018-04-20T07:29:20.630Z,10.67
2018-04-20T07:31:47.001Z,16.67
2018-04-20T07:34:14.026Z,8.70
2018-04-20T07:36:40.404Z,10.43
2018-04-20T07:39:06.684Z,17.30
2018-04-20T07:41:33.725Z,12.27
2018-04-20T07:44:00.689Z,12.53
2018-04-20T07:46:27.017Z,8.40
2018-04-20T07:48:53.345Z,11.13
2018-04-20T07:51:19.580Z,15.33
2018-04-20T07:53:46.014Z,9.10
2018-04-20T07:56:12.348Z,8.97
2018-04-20T07:58:38.679Z,9.67
2018-04-20T08:01:05.965Z,17.93
2018-04-20T08:03:32.255Z,11.40
2018-04-20T08:05:58.620Z,10.03
2018-04-20T08:08:24.953Z,7.37
2018-04-20T08:10:51.321Z,6.43
2018-04-20T08:13:17.617Z,9.93
2018-04-20T08:15:43.965Z,10.03
2018-04-20T08:18:10.267Z,9.23
2018-04-20T08:20:37.767Z,18.97
2018-04-20T08:23:04.255Z,8.93
2018-04-20T08:25:31.319Z,14.60
2018-04-20T08:27:57.604Z,9.63
2018-04-20T08:30:23.936Z,9.17
2018-04-20T08:32:50.246Z,5.87
2018-04-20T08:35:16.549Z,12.57
2018-04-20T08:37:42.958Z,15.10
2018-04-20T08:40:09.961Z,6.17
2018-04-20T08:42:36.244Z,8.50
2018-04-20T08:45:02.565Z,7.50
2018-04-20T08:47:29.633Z,15.10
2018-04-20T08:49:55.943Z,7.60
2018-04-20T08:52:23.043Z,11.13
2018-04-20T08:54:49.330Z,8.50
2018-04-20T08:57:16.383Z,6.70
2018-04-20T08:59:43.482Z,8.03
2018-04-20T09:02:09.815Z,6.30
2018-04-20T09:04:36.165Z,6.33
2018-04-20T09:07:02.443Z,11.63
2018-04-20T09:09:28.743Z,5.67
2018-04-20T09:11:55.755Z,6.70
2018-04-20T09:14:22.086Z,7.40
2018-04-20T09:16:48.344Z,10.13
2018-04-20T09:19:14.611Z,7.97
2018-04-20T09:21:40.875Z,5.30
2018-04-20T09:24:07.197Z,8.37
2018-04-20T09:26:33.509Z,13.50
2018-04-20T09:28:59.775Z,7.77
2018-04-20T09:31:26.092Z,6.73
2018-04-20T09:33:52.426Z,7.30
2018-04-20T09:36:18.787Z,13.63
2018-04-20T09:38:45.082Z,6.90
2018-04-20T09:41:11.471Z,5.67
2018-04-20T09:43:37.781Z,9.63
2018-04-20T09:46:04.753Z,14.43
2018-04-20T09:48:31.075Z,7.47
2018-04-20T09:51:04.364Z,9.53
2018-04-20T09:53:30.746Z,15.50
2018-04-20T09:55:58.008Z,12.50
2018-04-20T09:58:24.354Z,5.30
2018-04-20T10:00:50.720Z,6.80
2018-04-20T10:03:17.811Z,9.37
2018-04-20T10:05:44.304Z,8.50
2018-04-20T10:08:10.662Z,7.20
2018-04-20T10:10:36.963Z,6.00
2018-04-20T10:13:04.011Z,7.73
2018-04-20T10:15:31.190Z,5.97
2018-04-20T10:17:57.515Z,4.53
2018-04-20T10:20:23.875Z,8.73
2018-04-20T10:22:50.321Z,3.80
2018-04-20T10:25:16.764Z,4.23
2018-04-20T10:27:43.110Z,4.10
2018-04-20T10:30:09.445Z,5.50
2018-04-20T10:32:35.780Z,4.90
2018-04-20T10:35:02.147Z,5.20
2018-04-20T10:37:28.515Z,8.47
2018-04-20T10:39:54.912Z,4.53
2018-04-20T10:42:21.222Z,7.43
2018-04-20T10:44:48.243Z,3.17
2018-04-20T10:47:14.581Z,5.67
2018-04-20T10:49:40.906Z,3.87
2018-04-20T10:52:07.225Z,3.80
2018-04-20T10:54:33.610Z,6.73
2018-04-20T10:56:59.920Z,6.90
2018-04-20T10:59:26.913Z,3.73
2018-04-20T11:01:53.343Z,5.80
2018-04-20T11:04:19.721Z,4.30
2018-04-20T11:06:46.082Z,4.73
2018-04-20T11:09:12.363Z,6.77
2018-04-20T11:11:38.685Z,4.40
2018-04-20T11:14:04.989Z,4.53
2018-04-20T11:16:31.358Z,6.20
2018-04-20T11:18:57.712Z,10.87
2018-04-20T11:21:24.022Z,2.80
2018-04-20T11:23:50.377Z,4.33
2018-04-20T11:26:17.433Z,9.13
2018-04-20T11:28:43.779Z,7.73
2018-04-20T11:31:10.069Z,10.03
2018-04-20T11:33:36.380Z,7.47
2018-04-20T11:36:02.739Z,6.77
2018-04-20T11:38:29.757Z,4.63
2018-04-20T11:40:56.071Z,7.83
2018-04-20T11:43:22.347Z,6.30
2018-04-20T11:45:48.641Z,10.83
2018-04-20T11:48:15.074Z,8.27
2018-04-20T11:50:41.385Z,3.63
2018-04-20T11:53:07.743Z,3.17
2018-04-20T11:55:34.095Z,3.30
2018-04-20T11:58:00.428Z,3.57
2018-04-20T12:00:26.786Z,3.30
2018-04-20T12:02:53.876Z,2.23
2018-04-20T12:05:21.718Z,2.30
2018-04-20T12:07:48.334Z,1.73
2018-04-20T12:10:15.614Z,2.77
2018-04-20T12:12:42.005Z,4.67
2018-04-20T12:15:08.331Z,5.00
2018-04-20T12:17:34.816Z,2.13
2018-04-20T12:20:01.103Z,9.00
2018-04-20T12:22:27.503Z,1.53
2018-04-20T12:24:54.837Z,3.70
2018-04-20T12:27:21.227Z,5.50
2018-04-20T12:29:47.537Z,2.73
2018-04-20T12:32:14.016Z,2.47
2018-04-20T12:34:41.169Z,3.23
2018-04-20T12:37:07.658Z,4.20
2018-04-20T12:39:35.063Z,2.30
2018-04-20T12:42:01.431Z,3.13
2018-04-20T12:44:28.882Z,3.40
2018-04-20T12:46:55.501Z,4.00
2018-04-20T12:49:21.823Z,5.13
2018-04-20T12:51:48.731Z,2.90
2018-04-20T12:54:15.207Z,1.77
2018-04-20T12:56:41.608Z,1.50
2018-04-20T12:59:07.999Z,4.87
2018-04-20T13:01:34.825Z,4.83
2018-04-20T13:04:01.385Z,2.30
2018-04-20T13:06:27.755Z,1.50
2018-04-20T13:08:54.259Z,2.40
2018-04-20T13:11:20.717Z,5.20
2018-04-20T13:13:47.101Z,1.90
2018-04-20T13:16:14.313Z,5.27
2018-04-20T13:18:41.782Z,2.60
2018-04-20T13:21:08.865Z,2.23
2018-04-20T13:23:35.237Z,1.80
2018-04-20T13:26:01.536Z,3.03
2018-04-20T13:28:27.926Z,4.67
2018-04-20T13:30:55.022Z,5.67
2018-04-20T13:33:21.378Z,2.27
2018-04-20T13:35:47.676Z,3.50
2018-04-20T13:38:14.073Z,3.17
2018-04-20T13:40:41.118Z,8.40
2018-04-20T13:43:08.204Z,7.07
2018-04-20T13:45:34.533Z,3.00
2018-04-20T13:48:01.622Z,6.23
2018-04-20T13:50:27.968Z,3.80
2018-04-20T13:52:55.885Z,4.20
2018-04-20T13:55:22.222Z,6.60
2018-04-20T13:57:48.524Z,2.17
2018-04-20T14:00:14.843Z,5.07
2018-04-20T14:02:41.885Z,2.40
2018-04-20T14:05:08.251Z,2.97
2018-04-20T14:07:35.239Z,6.43
2018-04-20T14:10:01.823Z,10.60
2018-04-20T14:12:28.416Z,3.57
2018-04-20T14:14:54.713Z,3.97
2018-04-20T14:17:21.074Z,2.10
2018-04-20T14:19:47.375Z,3.70
2018-04-20T14:22:13.738Z,3.43
2018-04-20T14:24:40.037Z,3.03
2018-04-20T14:27:06.399Z,5.43
2018-04-20T14:29:32.679Z,2.00
2018-04-20T14:31:59.037Z,3.17
2018-04-20T14:34:25.409Z,7.10
2018-04-20T14:36:51.667Z,2.53
2018-04-20T14:39:18.089Z,2.60
2018-04-20T14:41:45.154Z,4.33
2018-04-20T14:44:11.442Z,4.03
2018-04-20T14:46:37.765Z,5.27
2018-04-20T14:49:04.871Z,2.90
2018-04-20T14:51:31.144Z,2.33
2018-04-20T14:53:57.415Z,3.00
2018-04-20T14:56:23.777Z,10.90
2018-04-20T14:58:50.082Z,3.50
2018-04-20T15:01:16.460Z,2.23
2018-04-20T15:03:42.856Z,2.43
2018-04-20T15:06:09.177Z,1.90
2018-04-20T15:08:35.810Z,2.33
2018-04-20T15:11:02.420Z,2.60
2018-04-20T15:13:28.844Z,2.70
2018-04-20T15:15:55.479Z,3.07
2018-04-20T15:18:21.840Z,4.47
2018-04-20T15:20:48.953Z,4.07
2018-04-20T15:23:15.375Z,1.77
2018-04-20T15:25:41.743Z,6.10
2018-04-20T15:28:08.914Z,4.37
2018-04-20T15:30:35.267Z,2.80
2018-04-20T15:33:01.591Z,3.83
2018-04-20T15:35:27.928Z,3.60
2018-04-20T15:37:54.222Z,5.57
2018-04-20T15:40:21.341Z,4.63
2018-04-20T15:42:47.604Z,2.33
2018-04-20T15:45:14.718Z,7.87
2018-04-20T15:47:41.047Z,5.90
2018-04-20T15:50:07.582Z,3.60
2018-04-20T15:52:33.884Z,7.13
2018-04-20T15:55:00.172Z,4.90
2018-04-20T15:57:26.471Z,3.57
2018-04-20T15:59:52.809Z,7.30
2018-04-20T16:02:19.932Z,10.00
2018-04-20T16:04:46.286Z,5.63
2018-04-20T16:07:12.593Z,5.13
2018-04-20T16:09:39.005Z,8.47
2018-04-20T16:12:05.349Z,4.60
2018-04-20T16:14:31.714Z,10.27
2018-04-20T16:16:57.989Z,6.07
2018-04-20T16:19:24.378Z,6.40
2018-04-20T16:21:50.711Z,4.67
2018-04-20T16:24:16.994Z,3.53
2018-04-20T16:26:43.298Z,4.13
2018-04-20T16:29:09.776Z,5.67
2018-04-20T16:31:36.364Z,6.30
2018-04-20T16:34:02.699Z,4.30
2018-04-20T16:36:29.745Z,3.57
2018-04-20T16:38:56.084Z,4.90
2018-04-20T16:41:23.168Z,5.57
2018-04-20T16:43:49.509Z,9.50
2018-04-20T16:46:15.790Z,4.20
2018-04-20T16:48:42.111Z,3.63
2018-04-20T16:51:15.322Z,5.57
2018-04-20T16:53:41.615Z,6.60
2018-04-20T16:56:08.149Z,6.17
2018-04-20T16:58:34.710Z,7.00
2018-04-20T17:01:01.406Z,7.97
2018-04-20T17:03:34.576Z,7.80
2018-04-20T17:06:00.952Z,4.60
2018-04-20T17:08:27.545Z,4.63
2018-04-20T17:10:54.109Z,9.60
2018-04-20T17:13:20.434Z,7.17
2018-04-20T17:15:46.759Z,10.37
2018-04-20T17:18:13.098Z,8.70
2018-04-20T17:20:40.282Z,6.23
2018-04-20T17:23:07.268Z,6.87
2018-04-20T17:25:33.622Z,9.67
2018-04-20T17:27:59.945Z,9.83
2018-04-20T17:30:26.315Z,13.07
2018-04-20T17:32:52.837Z,16.47
2018-04-20T17:35:19.190Z,21.00
2018-04-20T17:37:45.714Z,14.33
2018-04-20T17:40:12.357Z,13.10
2018-04-20T17:42:38.653Z,13.37
2018-04-20T17:45:05.029Z,20.43
2018-04-20T17:47:31.383Z,13.27
2018-04-20T17:49:57.764Z,10.30
2018-04-20T17:52:24.191Z,16.50
2018-04-20T17:54:50.671Z,19.63
2018-04-20T17:57:17.199Z,18.03
2018-04-20T17:59:43.535Z,10.80
2018-04-20T18:02:09.881Z,11.73
2018-04-20T18:04:36.161Z,13.50
2018-04-20T18:07:03.754Z,15.03
2018-04-20T18:09:30.205Z,15.57
2018-04-20T18:11:56.645Z,12.87
2018-04-20T18:14:23.723Z,7.20
2018-04-20T18:16:50.129Z,12.97
2018-04-20T18:19:24.380Z,9.83
2018-04-20T18:21:50.776Z,9.03
2018-04-20T18:24:17.214Z,15.00
2018-04-20T18:26:44.399Z,16.77
2018-04-20T18:29:10.725Z,10.67
2018-04-20T18:31:37.041Z,9.70
2018-04-20T18:34:04.133Z,11.97
2018-04-20T18:39:18.879Z,17.20
2018-04-20T18:41:46.447Z,25.77
2018-04-20T18:44:12.807Z,15.90
2018-04-20T18:46:39.114Z,22.43
2018-04-20T18:49:05.428Z,22.17
2018-04-20T18:51:32.762Z,24.47
2018-04-20T18:53:59.812Z,26.43
2018-04-20T18:56:26.920Z,25.87
2018-04-20T18:58:53.315Z,23.27
2018-04-20T19:01:19.642Z,21.60
2018-04-20T19:03:46.000Z,19.30
2018-04-20T19:06:12.638Z,17.80
2018-04-20T19:08:38.985Z,17.17
2018-04-20T19:11:06.373Z,16.10
2018-04-20T19:13:33.189Z,18.30
2018-04-20T19:15:59.774Z,25.60
2018-04-20T19:18:26.952Z,20.30
2018-04-20T19:20:53.304Z,23.30
2018-04-20T19:23:19.753Z,22.00
2018-04-20T19:25:46.303Z,13.43
2018-04-20T19:28:12.791Z,17.80
2018-04-20T19:30:39.197Z,25.73
2018-04-20T19:33:05.794Z,15.50
2018-04-20T19:35:32.207Z,16.97
2018-04-20T19:37:58.562Z,16.33
2018-04-20T19:40:25.095Z,15.50
2018-04-20T19:42:51.660Z,19.13
2018-04-20T19:45:20.698Z,18.03
2018-04-20T19:47:47.170Z,18.20
2018-04-20T19:50:13.603Z,11.83
2018-04-20T19:52:40.011Z,16.93
2018-04-20T19:55:06.501Z,12.83
2018-04-20T19:57:32.978Z,16.50
2018-04-20T20:00:00.059Z,8.77
2018-04-20T20:02:26.754Z,9.13
2018-04-20T20:04:53.774Z,12.53
2018-04-20T20:07:20.343Z,12.20
2018-04-20T20:09:46.879Z,8.40
2018-04-20T20:12:13.483Z,9.47
2018-04-20T20:14:40.867Z,17.83
2018-04-20T20:17:07.211Z,15.50
2018-04-20T20:19:33.601Z,9.50
2018-04-20T20:22:00.717Z,15.10
2018-04-20T20:24:27.155Z,9.67
2018-04-20T20:26:53.758Z,11.13
2018-04-20T20:29:20.111Z,11.60
2018-04-20T20:31:46.445Z,13.60
2018-04-20T20:34:12.783Z,14.20
2018-04-20T20:36:39.250Z,9.30
2018-04-20T20:39:05.621Z,15.47
2018-04-20T20:41:32.061Z,12.37
2018-04-20T20:43:58.447Z,18.13
2018-04-20T20:46:24.881Z,19.50
2018-04-20T20:48:51.359Z,16.37
2018-04-20T20:51:18.125Z,21.27
2018-04-20T20:53:44.454Z,10.60
2018-04-20T20:56:10.868Z,16.50
2018-04-20T20:58:37.240Z,20.20
2018-04-20T21:01:03.594Z,21.87
2018-04-20T21:03:30.630Z,18.43
2018-04-20T21:05:57.169Z,15.53
2018-04-20T21:08:23.633Z,20.80
2018-04-20T21:10:50.043Z,16.70
2018-04-20T21:13:16.481Z,19.33
2018-04-20T21:15:43.190Z,18.33
2018-04-20T21:18:09.553Z,24.53
2018-04-20T21:20:35.886Z,23.70
2018-04-20T21:23:02.259Z,27.90
2018-04-20T21:25:28.686Z,23.03
2018-04-20T21:27:55.193Z,20.20
2018-04-20T21:30:21.563Z,23.57
2018-04-20T21:32:47.896Z,23.83
2018-04-20T21:35:14.218Z,21.63
2018-04-20T21:37:40.495Z,25.07
2018-04-20T21:40:07.720Z,23.23
2018-04-20T21:42:35.099Z,23.37
2018-04-20T21:45:02.127Z,24.43
2018-04-20T21:47:28.520Z,23.03
2018-04-20T21:49:54.898Z,16.17
2018-04-20T21:52:22.118Z,15.40
2018-04-20T21:54:48.472Z,22.20
2018-04-20T21:57:14.842Z,18.40
2018-04-20T21:59:41.951Z,25.93
2018-04-20T22:02:09.447Z,24.90
2018-04-20T22:04:36.555Z,26.83
2018-04-20T22:07:02.929Z,30.13
2018-04-20T22:09:30.047Z,32.70
2018-04-20T22:11:56.419Z,24.87
2018-04-20T22:14:23.393Z,26.10
2018-04-20T22:16:49.800Z,24.57
2018-04-20T22:19:16.132Z,17.50
2018-04-20T22:21:42.518Z,24.23
2018-04-20T22:24:09.372Z,18.53
2018-04-20T22:26:35.691Z,25.10
2018-04-20T22:29:02.731Z,17.53
2018-04-20T22:31:29.075Z,16.83
2018-04-20T22:33:55.379Z,23.00
2018-04-20T22:36:21.900Z,16.30
2018-04-20T22:38:48.396Z,18.67
2018-04-20T22:41:14.792Z,15.53
2018-04-20T22:43:42.055Z,18.77
2018-04-20T22:46:08.540Z,17.00
2018-04-20T22:48:34.927Z,18.13
2018-04-20T22:51:01.349Z,16.43
2018-04-20T22:53:29.431Z,21.30
2018-04-20T22:55:55.748Z,14.37
2018-04-20T22:58:22.130Z,25.17
2018-04-20T23:00:49.275Z,19.70
2018-04-20T23:03:16.350Z,18.90
2018-04-20T23:05:42.678Z,15.90
2018-04-20T23:08:09.015Z,23.53
2018-04-20T23:10:35.348Z,27.67
2018-04-20T23:13:01.673Z,28.43
2018-04-20T23:15:27.986Z,21.60
2018-04-20T23:17:54.353Z,21.70
2018-04-20T23:20:20.744Z,23.97
2018-04-20T23:22:47.802Z,15.03
2018-04-20T23:25:14.244Z,15.20
2018-04-20T23:27:40.578Z,12.03
2018-04-20T23:30:06.979Z,14.10
2018-04-20T23:32:33.303Z,14.40
2018-04-20T23:34:59.823Z,14.53
2018-04-20T23:37:26.145Z,8.83
2018-04-20T23:39:52.480Z,13.20
2018-04-20T23:42:18.878Z,19.50
2018-04-20T23:44:45.193Z,10.00
2018-04-20T23:47:12.225Z,8.83
2018-04-20T23:49:39.288Z,19.33
2018-04-20T23:52:06.457Z,10.67
2018-04-20T23:54:32.835Z,11.83
2018-04-20T23:56:59.152Z,9.30
2018-04-20T23:59:25.426Z,10.63
